Time;durP1;ratioP1;P1;durP2;ratioP2;P2;SDS_P1;SDS_P2;PMS_P1;PMS_P2;Temp;Humidity;BMP_temperature;BMP_pressure;BME280_temperature;BME280_humidity;BME280_pressure;Samples;Min_cycle;Max_cycle;Signal;HPM_P1;HPM_P2
2022/02/28 00:01:29;;;;;;;4.80;3.45;;;7.00;77.10;;;;;;4811458;29;20077;-81
2022/02/28 00:03:56;;;;;;;5.10;3.58;;;6.90;77.10;;;;;;4812060;29;20499;-81
2022/02/28 00:06:24;;;;;;;5.25;3.38;;;6.90;77.10;;;;;;4797269;29;20484;-80
2022/02/28 00:08:50;;;;;;;5.72;3.50;;;6.90;77.10;;;;;;4826644;29;20039;-81
2022/02/28 00:11:16;;;;;;;5.72;3.72;;;6.90;77.10;;;;;;4828452;29;20038;-80
2022/02/28 00:13:42;;;;;;;5.15;3.40;;;6.80;77.10;;;;;;4796193;29;20079;-80
2022/02/28 00:16:08;;;;;;;5.82;3.30;;;6.80;77.10;;;;;;4825934;29;20129;-80
2022/02/28 00:18:34;;;;;;;4.90;3.35;;;6.80;77.10;;;;;;4825694;29;20109;-80
2022/02/28 00:21:00;;;;;;;5.45;3.70;;;6.80;77.10;;;;;;4810056;29;20038;-80
2022/02/28 00:23:26;;;;;;;5.82;3.92;;;6.70;77.10;;;;;;4810426;29;20039;-80
2022/02/28 00:25:52;;;;;;;5.43;3.67;;;6.70;77.10;;;;;;4810653;29;20041;-81
2022/02/28 00:28:18;;;;;;;4.75;3.25;;;6.60;77.10;;;;;;4825030;29;20096;-81
2022/02/28 00:30:44;;;;;;;5.55;3.65;;;6.60;77.10;;;;;;4810311;29;20030;-81
2022/02/28 00:33:11;;;;;;;4.85;3.63;;;6.60;77.10;;;;;;4809783;29;20034;-80
2022/02/28 00:35:38;;;;;;;5.38;3.58;;;6.60;77.10;;;;;;4825433;29;20022;-80
2022/02/28 00:38:06;;;;;;;5.15;3.55;;;6.60;77.10;;;;;;4809219;29;20070;-80
2022/02/28 00:40:32;;;;;;;5.55;3.70;;;6.60;77.10;;;;;;4826136;29;20022;-80
2022/02/28 00:42:57;;;;;;;4.97;3.63;;;6.50;77.00;;;;;;4809657;29;20170;-80
2022/02/28 00:45:23;;;;;;;5.03;3.42;;;6.50;77.00;;;;;;4825080;29;20031;-80
2022/02/28 00:47:49;;;;;;;4.90;3.55;;;6.50;77.00;;;;;;4824747;29;20030;-80
2022/02/28 00:50:15;;;;;;;5.47;3.63;;;6.40;77.00;;;;;;4780181;29;20129;-81
2022/02/28 00:52:41;;;;;;;5.22;3.75;;;6.40;77.00;;;;;;4824388;29;20129;-80
2022/02/28 00:55:08;;;;;;;5.50;3.70;;;6.40;77.00;;;;;;4794385;29;20370;-80
2022/02/28 00:57:34;;;;;;;5.20;3.85;;;6.40;77.00;;;;;;4824142;29;20027;-80
2022/02/28 01:00:00;;;;;;;5.22;3.92;;;6.30;77.00;;;;;;4808845;29;20037;-80
2022/02/28 01:02:26;;;;;;;5.55;3.80;;;6.30;77.00;;;;;;4824142;29;20481;-80
2022/02/28 01:04:51;;;;;;;5.30;3.42;;;6.30;77.00;;;;;;4809093;29;20113;-80
2022/02/28 01:07:18;;;;;;;4.90;3.50;;;6.30;77.00;;;;;;4793451;29;20034;-80
2022/02/28 01:09:44;;;;;;;5.53;3.63;;;6.20;76.90;;;;;;4823809;29;20073;-81
2022/02/28 01:12:10;;;;;;;5.40;3.78;;;6.20;76.90;;;;;;4823831;29;20042;-80
2022/02/28 01:14:37;;;;;;;5.28;3.80;;;6.20;77.00;;;;;;4808664;29;20026;-80
2022/02/28 01:17:03;;;;;;;5.53;3.60;;;6.20;76.90;;;;;;4824968;29;20037;-81
2022/02/28 01:19:29;;;;;;;4.72;3.30;;;6.20;76.90;;;;;;4809103;29;20399;-80
2022/02/28 01:21:55;;;;;;;6.18;4.25;;;6.10;76.90;;;;;;4808686;29;20045;-80
2022/02/28 01:24:20;;;;;;;4.45;3.30;;;6.10;77.00;;;;;;4793674;29;20038;-80
2022/02/28 01:26:48;;;;;;;4.97;3.72;;;6.10;77.00;;;;;;4823703;29;20504;-80
2022/02/28 01:29:14;;;;;;;5.45;3.70;;;6.10;77.00;;;;;;4809827;29;20075;-80
2022/02/28 01:31:40;;;;;;;5.70;3.97;;;6.00;76.90;;;;;;4824589;29;20034;-80
2022/02/28 01:34:06;;;;;;;5.43;3.72;;;6.00;76.90;;;;;;4824954;29;20396;-80
2022/02/28 01:36:32;;;;;;;5.30;3.50;;;6.00;76.90;;;;;;4823538;29;20035;-80
2022/02/28 01:39:00;;;;;;;5.43;3.70;;;6.00;76.90;;;;;;4777997;29;20034;-80
2022/02/28 01:41:26;;;;;;;5.18;3.40;;;5.90;76.80;;;;;;4793429;29;20379;-80
2022/02/28 01:43:52;;;;;;;5.43;3.80;;;5.90;76.90;;;;;;4823192;29;20045;-80
2022/02/28 01:46:18;;;;;;;4.88;3.53;;;5.90;76.90;;;;;;4808068;29;20058;-80
2022/02/28 01:48:45;;;;;;;5.07;3.53;;;5.90;76.90;;;;;;4808120;29;20126;-80
2022/02/28 01:51:11;;;;;;;5.47;3.58;;;5.90;76.90;;;;;;4810296;29;20031;-79
2022/02/28 01:53:37;;;;;;;4.90;2.90;;;5.80;76.80;;;;;;4827215;29;20038;-80
2022/02/28 01:56:03;;;;;;;6.00;4.15;;;5.80;76.90;;;;;;4826938;29;20027;-81
2022/02/28 01:58:37;;;;;;;5.03;3.20;;;5.80;77.50;;;;;;4826825;29;20038;-79
2022/02/28 02:01:05;;;;;;;5.47;3.42;;;5.80;76.90;;;;;;4812024;29;20041;-81
2022/02/28 02:03:32;;;;;;;4.65;3.60;;;5.70;76.90;;;;;;4811996;29;20083;-80
2022/02/28 02:05:58;;;;;;;5.63;3.50;;;5.70;76.90;;;;;;4812564;29;20106;-80
2022/02/28 02:08:26;;;;;;;5.22;3.40;;;5.70;76.90;;;;;;4796693;29;20034;-80
2022/02/28 02:10:52;;;;;;;6.03;3.75;;;5.70;76.90;;;;;;4826913;29;20152;-79
2022/02/28 02:13:19;;;;;;;4.93;3.60;;;5.70;76.90;;;;;;4827044;29;20065;-80
2022/02/28 02:15:46;;;;;;;4.93;3.33;;;5.70;76.90;;;;;;4826725;29;20039;-80
2022/02/28 02:18:12;;;;;;;4.88;3.50;;;5.60;76.90;;;;;;4811975;29;20056;-79
2022/02/28 02:20:39;;;;;;;5.53;3.70;;;5.60;76.90;;;;;;4811779;29;20042;-79
2022/02/28 02:23:08;;;;;;;5.88;3.35;;;5.60;76.90;;;;;;4796348;29;20036;-80
2022/02/28 02:25:36;;;;;;;4.75;3.55;;;5.60;76.90;;;;;;4826505;29;20045;-80
2022/02/28 02:28:04;;;;;;;4.90;3.30;;;5.60;76.90;;;;;;4812675;29;20057;-80
2022/02/28 02:30:32;;;;;;;5.28;3.65;;;5.60;76.90;;;;;;4814247;29;20050;-81
2022/02/28 02:33:00;;;;;;;4.80;3.45;;;5.50;76.80;;;;;;4814569;29;20444;-80
2022/02/28 02:35:27;;;;;;;5.70;3.50;;;5.50;76.80;;;;;;4830275;29;20528;-80
2022/02/28 02:37:53;;;;;;;4.80;3.47;;;5.50;76.90;;;;;;4814603;29;20050;-80
2022/02/28 02:40:19;;;;;;;3.78;3.05;;;5.50;76.90;;;;;;4814499;29;20094;-80
2022/02/28 02:42:45;;;;;;;5.28;3.38;;;5.50;76.90;;;;;;4814345;29;20026;-78
2022/02/28 02:45:12;;;;;;;4.18;3.05;;;5.40;76.80;;;;;;4814324;29;20049;-80
2022/02/28 02:47:39;;;;;;;5.20;3.47;;;5.40;76.80;;;;;;4829042;29;20045;-78
2022/02/28 02:50:10;;;;;;;5.18;3.38;;;5.40;76.80;;;;;;4814932;29;20037;-80
2022/02/28 02:52:36;;;;;;;5.43;3.97;;;5.40;76.90;;;;;;4814868;29;20061;-81
2022/02/28 02:55:04;;;;;;;4.90;3.70;;;5.30;76.80;;;;;;4814238;29;20421;-81
2022/02/28 02:57:30;;;;;;;4.68;3.30;;;5.30;76.80;;;;;;4829436;29;20034;-79
2022/02/28 02:59:59;;;;;;;5.65;3.60;;;5.30;76.80;;;;;;4799676;29;20133;-79
2022/02/28 03:02:31;;;;;;;5.35;3.72;;;5.30;76.80;;;;;;4813693;29;20034;-80
2022/02/28 03:04:58;;;;;;;4.55;3.38;;;5.30;76.80;;;;;;4815075;29;20041;-79
2022/02/28 03:07:24;;;;;;;5.28;3.78;;;5.20;76.80;;;;;;4813578;29;20029;-79
2022/02/28 03:09:50;;;;;;;4.32;3.35;;;5.20;76.80;;;;;;4799180;29;20041;-78
2022/02/28 03:12:16;;;;;;;6.00;3.92;;;5.20;76.80;;;;;;4813583;29;20060;-80
2022/02/28 03:14:44;;;;;;;5.43;3.72;;;5.20;76.80;;;;;;4814600;29;20042;-79
2022/02/28 03:17:10;;;;;;;5.10;3.58;;;5.20;76.80;;;;;;4813807;29;20030;-80
2022/02/28 03:19:36;;;;;;;5.00;3.65;;;5.10;76.70;;;;;;4813593;29;20042;-79
2022/02/28 03:22:02;;;;;;;5.30;3.38;;;5.20;76.80;;;;;;4813725;29;20032;-79
2022/02/28 03:24:31;;;;;;;5.20;3.50;;;5.10;76.80;;;;;;4814305;29;20038;-80
2022/02/28 03:26:58;;;;;;;4.85;3.45;;;5.10;76.80;;;;;;4814166;29;20036;-79
2022/02/28 03:29:25;;;;;;;4.80;3.58;;;5.10;76.80;;;;;;4813513;29;20114;-79
2022/02/28 03:31:51;;;;;;;5.03;3.58;;;5.10;76.80;;;;;;4814066;29;20352;-79
2022/02/28 03:34:17;;;;;;;5.15;3.80;;;5.00;76.80;;;;;;4813719;29;20063;-79
2022/02/28 03:36:43;;;;;;;5.25;3.58;;;5.00;76.70;;;;;;4813121;29;20041;-80
2022/02/28 03:39:14;;;;;;;5.55;3.55;;;5.00;76.70;;;;;;4814633;29;20133;-78
2022/02/28 03:41:40;;;;;;;5.05;3.33;;;5.00;77.40;;;;;;4828028;29;20616;-79
2022/02/28 03:44:06;;;;;;;5.43;3.78;;;5.00;76.80;;;;;;4813715;29;20030;-80
2022/02/28 03:46:36;;;;;;;4.80;3.60;;;5.00;77.40;;;;;;4828648;29;20120;-79
2022/02/28 03:49:14;;;;;;;5.43;3.42;;;4.90;76.70;;;;;;4816765;29;20085;-79
2022/02/28 03:51:45;;;;;;;5.10;3.35;;;4.90;76.70;;;;;;4799249;29;20034;-79
2022/02/28 03:54:21;;;;;;;4.72;3.47;;;4.90;76.70;;;;;;4828321;29;20472;-79
2022/02/28 03:56:46;;;;;;;4.90;3.38;;;4.90;76.70;;;;;;4828179;29;20041;-79
2022/02/28 03:59:14;;;;;;;5.25;3.78;;;4.90;76.80;;;;;;4812954;29;20151;-79
2022/02/28 04:01:40;;;;;;;5.35;3.72;;;4.80;76.70;;;;;;4812808;29;20034;-78
2022/02/28 04:04:11;;;;;;;5.50;3.65;;;4.80;76.70;;;;;;4813659;29;20030;-79
2022/02/28 04:06:37;;;;;;;5.45;3.70;;;4.80;76.70;;;;;;4813097;29;20041;-79
2022/02/28 04:09:04;;;;;;;5.05;3.35;;;4.80;76.70;;;;;;4827882;29;20499;-78
2022/02/28 04:11:31;;;;;;;4.30;2.80;;;4.70;76.70;;;;;;4812722;29;20037;-79
2022/02/28 04:13:57;;;;;;;4.75;3.40;;;4.70;76.70;;;;;;4812096;29;20481;-79
2022/02/28 04:16:23;;;;;;;4.28;3.33;;;4.70;76.70;;;;;;4827722;29;20570;-80
2022/02/28 04:19:09;;;;;;;4.75;3.25;;;4.70;76.70;;;;;;4843623;29;20079;-79
2022/02/28 04:21:41;;;;;;;4.90;3.47;;;4.70;76.70;;;;;;4814014;29;20062;-79
2022/02/28 04:24:07;;;;;;;5.90;3.60;;;4.70;76.70;;;;;;4812493;29;20077;-79
2022/02/28 04:26:35;;;;;;;4.68;3.40;;;4.60;76.70;;;;;;4827661;29;20487;-79
2022/02/28 04:29:02;;;;;;;5.55;3.85;;;4.60;76.70;;;;;;4811879;29;20058;-79
2022/02/28 04:31:27;;;;;;;4.82;3.70;;;4.60;76.70;;;;;;4812364;29;20062;-79
2022/02/28 04:33:55;;;;;;;5.60;3.70;;;4.60;76.70;;;;;;4827335;29;20086;-79
2022/02/28 04:36:22;;;;;;;4.57;3.40;;;4.60;76.70;;;;;;4812242;29;20099;-79
2022/02/28 04:38:47;;;;;;;5.88;3.90;;;4.60;76.70;;;;;;4812315;29;20443;-79
2022/02/28 04:41:13;;;;;;;5.20;3.58;;;4.50;76.60;;;;;;4812966;29;20082;-79
2022/02/28 04:43:39;;;;;;;5.47;3.65;;;4.50;76.60;;;;;;4797278;29;20038;-78
2022/02/28 04:46:06;;;;;;;4.90;3.60;;;4.50;76.70;;;;;;4827574;29;20041;-79
2022/02/28 04:48:32;;;;;;;5.55;3.78;;;4.50;76.70;;;;;;4812183;29;20042;-79
2022/02/28 04:51:16;;;;;;;5.53;3.38;;;4.40;76.70;;;;;;4817431;29;20459;-79
2022/02/28 04:53:42;;;;;;;5.60;3.92;;;4.40;76.60;;;;;;4812793;29;20034;-79
2022/02/28 04:56:08;;;;;;;4.22;3.45;;;4.40;76.70;;;;;;4811925;29;20036;-80
2022/02/28 04:58:34;;;;;;;5.95;3.85;;;4.40;77.30;;;;;;4811734;29;20124;-79
2022/02/28 05:01:20;;;;;;;5.32;3.67;;;4.40;76.70;;;;;;4827460;29;20081;-79
2022/02/28 05:03:48;;;;;;;6.50;3.97;;;4.30;76.60;;;;;;4827067;29;20038;-78
2022/02/28 05:06:13;;;;;;;4.85;3.60;;;4.30;76.60;;;;;;4811823;29;20037;-79
2022/02/28 05:08:45;;;;;;;4.88;3.65;;;4.30;76.60;;;;;;4812956;29;20057;-79
2022/02/28 05:11:13;;;;;;;5.60;3.42;;;4.30;76.60;;;;;;4827145;29;20033;-78
2022/02/28 05:13:41;;;;;;;6.15;3.92;;;4.30;76.70;;;;;;4796974;29;20094;-80
2022/02/28 05:16:06;;;;;;;4.97;3.65;;;4.20;76.60;;;;;;4812564;29;20125;-77
2022/02/28 05:18:33;;;;;;;6.63;4.40;;;4.20;76.60;;;;;;4811622;29;20061;-79
2022/02/28 05:20:59;;;;;;;5.95;3.90;;;4.20;76.60;;;;;;4811793;29;20038;-79
2022/02/28 05:23:27;;;;;;;5.53;3.88;;;4.20;76.60;;;;;;4812095;29;20456;-78
2022/02/28 05:25:53;;;;;;;6.45;3.72;;;4.20;76.60;;;;;;4811082;29;20129;-79
2022/02/28 05:28:19;;;;;;;5.35;3.95;;;4.20;76.60;;;;;;4811897;29;20056;-79
2022/02/28 05:30:47;;;;;;;5.55;3.90;;;4.10;76.50;;;;;;4808481;29;20042;-79
2022/02/28 05:33:19;;;;;;;6.03;3.88;;;4.10;76.60;;;;;;4823731;29;20138;-79
2022/02/28 05:35:52;;;;;;;6.25;3.72;;;4.10;76.60;;;;;;4810656;29;20035;-79
2022/02/28 05:38:22;;;;;;;5.55;4.00;;;4.10;76.60;;;;;;4809116;29;20022;-79
2022/02/28 05:40:53;;;;;;;6.00;4.20;;;4.00;76.50;;;;;;4823745;29;20124;-78
2022/02/28 05:43:26;;;;;;;5.72;3.92;;;4.10;76.60;;;;;;4810071;29;20107;-76
2022/02/28 05:45:54;;;;;;;6.38;3.90;;;4.10;76.60;;;;;;4808291;29;20036;-76
2022/02/28 05:48:35;;;;;;;4.95;3.33;;;4.00;76.50;;;;;;4797004;29;20034;-77
2022/02/28 05:51:01;;;;;;;5.78;3.90;;;4.00;76.50;;;;;;4807789;29;20034;-76
2022/02/28 05:53:27;;;;;;;5.47;3.80;;;4.00;76.60;;;;;;4807713;29;20510;-78
2022/02/28 05:55:53;;;;;;;5.63;4.15;;;3.90;76.60;;;;;;4808377;29;20394;-78
2022/02/28 05:58:18;;;;;;;4.60;3.30;;;3.90;76.50;;;;;;4807911;29;20045;-76
2022/02/28 06:00:44;;;;;;;5.72;3.90;;;3.90;76.50;;;;;;4823681;29;20039;-78
2022/02/28 06:03:10;;;;;;;4.97;3.95;;;3.90;76.50;;;;;;4808062;29;20042;-77
2022/02/28 06:05:36;;;;;;;5.47;4.00;;;3.90;76.60;;;;;;4808133;29;20038;-79
2022/02/28 06:08:02;;;;;;;5.10;3.60;;;3.90;76.50;;;;;;4793094;29;20034;-78
2022/02/28 06:10:27;;;;;;;5.38;4.03;;;3.90;76.60;;;;;;4823414;29;20070;-79
2022/02/28 06:12:53;;;;;;;5.75;4.00;;;3.80;76.50;;;;;;4808559;29;20090;-79
2022/02/28 06:15:19;;;;;;;6.05;4.43;;;3.80;76.50;;;;;;4807732;29;20049;-77
2022/02/28 06:17:45;;;;;;;5.05;3.60;;;3.80;76.50;;;;;;4807727;29;20468;-78
2022/02/28 06:20:11;;;;;;;5.97;4.25;;;3.80;76.50;;;;;;4824142;29;20037;-78
2022/02/28 06:22:37;;;;;;;5.55;4.25;;;3.80;76.60;;;;;;4807608;29;20030;-78
2022/02/28 06:25:03;;;;;;;5.20;3.83;;;3.70;76.50;;;;;;4792658;29;20098;-77
2022/02/28 06:27:29;;;;;;;5.45;4.03;;;3.70;76.50;;;;;;4777524;29;20030;-76
2022/02/28 06:29:55;;;;;;;6.00;4.20;;;3.70;76.50;;;;;;4807572;29;20069;-76
2022/02/28 06:32:21;;;;;;;6.05;4.15;;;3.70;76.50;;;;;;4792885;29;20053;-78
2022/02/28 06:34:46;;;;;;;5.45;3.92;;;3.70;76.50;;;;;;4823958;29;20082;-77
2022/02/28 06:37:13;;;;;;;5.32;3.80;;;3.70;76.60;;;;;;4809396;29;20027;-77
2022/02/28 06:39:38;;;;;;;5.55;4.30;;;3.70;77.10;;;;;;4825858;29;20042;-77
2022/02/28 06:42:05;;;;;;;5.40;3.80;;;3.60;76.50;;;;;;4825804;29;20041;-77
2022/02/28 06:44:31;;;;;;;6.68;4.47;;;3.60;76.50;;;;;;4811091;29;20034;-78
2022/02/28 06:46:57;;;;;;;6.53;4.20;;;3.60;76.50;;;;;;4810804;29;20034;-77
2022/02/28 06:49:23;;;;;;;6.05;4.18;;;3.60;76.50;;;;;;4810279;29;20046;-81
2022/02/28 06:51:49;;;;;;;5.50;4.05;;;3.60;76.50;;;;;;4796341;29;20038;-77
2022/02/28 06:54:15;;;;;;;6.10;4.15;;;3.60;76.50;;;;;;4825286;29;20034;-76
2022/02/28 06:56:42;;;;;;;5.90;4.35;;;3.50;76.50;;;;;;4810576;29;20099;-77
2022/02/28 06:59:08;;;;;;;6.95;4.60;;;3.50;76.50;;;;;;4825379;29;20038;-77
2022/02/28 07:01:36;;;;;;;5.00;3.83;;;3.50;76.50;;;;;;4810887;29;20460;-76
2022/02/28 07:04:25;;;;;;;6.80;4.43;;;3.50;76.50;;;;;;4808824;29;20046;-77
2022/02/28 07:06:50;;;;;;;6.60;4.30;;;3.50;76.40;;;;;;4795519;29;20034;-78
2022/02/28 07:09:16;;;;;;;7.18;5.20;;;3.40;77.00;;;;;;4810400;29;20384;-80
2022/02/28 07:11:42;;;;;;;5.45;3.88;;;3.50;76.50;;;;;;4825996;29;20043;-79
2022/02/28 07:14:08;;;;;;;5.38;4.20;;;3.50;76.60;;;;;;4795552;29;20425;-78
2022/02/28 07:16:34;;;;;;;6.47;4.63;;;3.40;76.50;;;;;;4810529;29;20038;-77
2022/02/28 07:19:00;;;;;;;7.07;4.30;;;3.40;76.50;;;;;;4795243;29;20164;-78
2022/02/28 07:21:26;;;;;;;6.25;4.47;;;3.40;76.50;;;;;;4825715;29;20042;-79
2022/02/28 07:23:52;;;;;;;5.95;4.28;;;3.40;76.50;;;;;;4810602;29;20445;-79
2022/02/28 07:26:17;;;;;;;5.55;4.30;;;3.40;76.50;;;;;;4810551;29;20046;-79
2022/02/28 07:28:43;;;;;;;7.05;4.63;;;3.40;76.50;;;;;;4813341;29;20062;-80
2022/02/28 07:31:09;;;;;;;5.65;4.32;;;3.40;76.50;;;;;;4813553;29;20129;-78
2022/02/28 07:33:35;;;;;;;5.68;4.00;;;3.40;76.50;;;;;;4812925;29;20029;-78
2022/02/28 07:36:00;;;;;;;5.85;4.05;;;3.40;76.50;;;;;;4798774;29;20030;-79
2022/02/28 07:38:26;;;;;;;6.03;4.45;;;3.40;76.40;;;;;;4813087;29;20033;-81
2022/02/28 07:40:52;;;;;;;6.32;4.60;;;3.40;76.40;;;;;;4827944;29;20036;-79
2022/02/28 07:43:18;;;;;;;6.30;4.43;;;3.40;76.40;;;;;;4812983;29;20059;-79
2022/02/28 07:45:43;;;;;;;6.22;4.30;;;3.40;76.40;;;;;;4844724;29;20060;-78
2022/02/28 07:48:09;;;;;;;6.57;4.68;;;3.50;76.50;;;;;;4826792;29;20094;-80
2022/02/28 07:50:35;;;;;;;5.88;4.75;;;3.40;76.40;;;;;;4828402;29;20042;-79
2022/02/28 07:53:00;;;;;;;5.40;4.20;;;3.40;76.40;;;;;;4812979;29;20030;-78
2022/02/28 07:55:26;;;;;;;5.97;4.30;;;3.50;76.50;;;;;;4828486;29;20409;-79
2022/02/28 07:57:52;;;;;;;6.60;4.43;;;3.50;76.50;;;;;;4827886;29;20034;-79
2022/02/28 08:00:18;;;;;;;6.25;4.60;;;3.50;76.50;;;;;;4828101;29;20037;-79
2022/02/28 08:02:43;;;;;;;6.20;4.25;;;3.40;76.50;;;;;;4813373;29;20045;-81
2022/02/28 08:05:09;;;;;;;6.07;4.13;;;3.40;76.50;;;;;;4798125;29;20448;-81
2022/02/28 08:07:39;;;;;;;5.93;4.53;;;3.40;76.50;;;;;;4812969;29;20102;-80
2022/02/28 08:10:06;;;;;;;5.95;4.13;;;3.50;76.60;;;;;;4798254;29;20046;-80
2022/02/28 08:12:32;;;;;;;6.07;4.47;;;3.40;76.50;;;;;;4812984;29;20029;-80
2022/02/28 08:14:57;;;;;;;5.30;3.90;;;3.50;76.60;;;;;;4828437;29;20110;-80
2022/02/28 08:17:23;;;;;;;5.65;3.95;;;3.40;76.50;;;;;;4828478;29;20401;-80
2022/02/28 08:19:49;;;;;;;6.13;4.35;;;3.50;76.60;;;;;;4813290;29;20049;-81
2022/02/28 08:22:14;;;;;;;5.15;3.85;;;3.50;76.60;;;;;;4827892;29;20090;-80
2022/02/28 08:24:40;;;;;;;5.82;4.18;;;3.50;76.60;;;;;;4812626;29;20040;-80
2022/02/28 08:27:06;;;;;;;5.70;4.22;;;3.50;76.60;;;;;;4827764;29;20044;-79
2022/02/28 08:29:32;;;;;;;6.32;4.15;;;3.50;76.60;;;;;;4797268;29;20060;-79
2022/02/28 08:31:58;;;;;;;6.25;4.55;;;3.50;76.70;;;;;;4812521;29;20042;-80
2022/02/28 08:34:24;;;;;;;5.75;4.32;;;3.50;76.70;;;;;;4827439;29;20090;-80
2022/02/28 08:36:49;;;;;;;6.13;4.53;;;3.50;76.70;;;;;;4827594;29;20038;-79
2022/02/28 08:39:15;;;;;;;5.25;4.22;;;3.50;76.70;;;;;;4812287;29;20038;-79
2022/02/28 08:41:41;;;;;;;5.50;4.07;;;3.50;76.70;;;;;;4812432;29;20038;-79
2022/02/28 08:44:07;;;;;;;5.90;4.32;;;3.60;76.80;;;;;;4812958;29;20462;-80
2022/02/28 08:46:35;;;;;;;6.18;4.15;;;3.60;76.80;;;;;;4827554;29;20045;-79
2022/02/28 08:49:02;;;;;;;5.97;4.10;;;3.60;76.80;;;;;;4812440;29;20491;-80
2022/02/28 08:51:28;;;;;;;5.43;3.85;;;3.60;76.80;;;;;;4843588;29;20045;-83
2022/02/28 08:53:54;;;;;;;7.43;4.50;;;3.60;76.80;;;;;;4843223;29;20046;-80
2022/02/28 08:56:19;;;;;;;5.82;4.07;;;3.60;76.90;;;;;;4812280;29;20058;-79
2022/02/28 08:58:46;;;;;;;6.25;4.63;;;3.60;76.90;;;;;;4827053;29;20128;-81
2022/02/28 09:01:12;;;;;;;6.82;4.97;;;3.60;76.90;;;;;;4812153;29;20103;-81
2022/02/28 09:03:38;;;;;;;5.90;4.43;;;3.70;77.00;;;;;;4811942;29;20126;-81
2022/02/28 09:06:04;;;;;;;6.47;4.45;;;3.70;77.00;;;;;;4812307;29;20061;-82
2022/02/28 09:08:30;;;;;;;6.15;4.63;;;3.70;77.00;;;;;;4827296;29;20037;-80
2022/02/28 09:10:56;;;;;;;5.55;4.15;;;3.70;77.00;;;;;;4812617;29;20030;-82
2022/02/28 09:13:21;;;;;;;6.55;4.65;;;3.70;77.00;;;;;;4826999;29;20072;-80
2022/02/28 09:15:47;;;;;;;6.30;4.22;;;3.80;77.10;;;;;;4811917;29;20034;-80
2022/02/28 09:18:13;;;;;;;4.55;3.83;;;3.80;77.10;;;;;;4827144;29;20042;-79
2022/02/28 09:20:38;;;;;;;6.72;4.00;;;3.80;77.20;;;;;;4812055;29;20074;-80
2022/02/28 09:23:05;;;;;;;6.35;4.38;;;3.80;77.10;;;;;;4826950;29;20041;-81
2022/02/28 09:25:32;;;;;;;6.65;4.25;;;3.90;77.20;;;;;;4812007;29;20030;-80
2022/02/28 09:27:58;;;;;;;5.97;4.43;;;3.90;77.20;;;;;;4811252;29;20033;-80
2022/02/28 09:30:24;;;;;;;6.05;4.63;;;4.00;77.20;;;;;;4811411;29;20114;-80
2022/02/28 09:32:54;;;;;;;6.18;4.40;;;4.00;77.20;;;;;;4797586;29;20072;-80
2022/02/28 09:35:20;;;;;;;6.10;4.38;;;4.00;77.20;;;;;;4811815;29;20065;-80
2022/02/28 09:37:46;;;;;;;6.22;4.55;;;4.10;77.20;;;;;;4826732;29;20078;-80
2022/02/28 09:40:12;;;;;;;5.40;4.05;;;4.10;77.20;;;;;;4811443;29;20033;-80
2022/02/28 09:42:39;;;;;;;6.15;4.28;;;4.20;77.20;;;;;;4842893;29;20025;-82
2022/02/28 09:45:25;;;;;;;;;;;4.20;77.20;;;;;;4843950;29;20057;-80
2022/02/28 09:47:51;;;;;;;4.78;3.55;;;4.20;77.20;;;;;;4842655;29;19912;-79
2022/02/28 09:50:35;;;;;;;5.63;4.07;;;4.20;77.10;;;;;;4829096;29;20049;-81
2022/02/28 09:53:27;;;;;;;5.03;3.60;;;4.30;77.30;;;;;;4830062;29;20042;-80
2022/02/28 09:56:11;;;;;;;5.80;4.03;;;4.40;77.30;;;;;;4816824;29;20106;-80
2022/02/28 09:58:37;;;;;;;6.10;4.43;;;4.40;77.20;;;;;;4811303;29;20042;-81
2022/02/28 10:01:03;;;;;;;6.05;4.18;;;4.50;77.30;;;;;;4812060;29;20159;-80
2022/02/28 10:03:34;;;;;;;6.47;4.90;;;4.60;77.30;;;;;;4812152;29;20034;-80
2022/02/28 10:06:02;;;;;;;6.00;4.30;;;4.60;77.30;;;;;;4811526;29;20117;-80
2022/02/28 10:08:44;;;;;;;6.00;4.25;;;4.60;77.20;;;;;;4811523;29;20512;-80
2022/02/28 10:11:26;;;;;;;5.80;4.10;;;4.70;77.30;;;;;;4827119;29;20065;-80
2022/02/28 10:13:55;;;;;;;6.10;4.20;;;4.80;77.90;;;;;;4830478;29;20037;-80
2022/02/28 10:16:40;;;;;;;5.97;4.18;;;4.80;77.10;;;;;;4830105;29;20053;-80
2022/02/28 10:19:12;;;;;;;6.25;4.47;;;4.90;77.30;;;;;;4814517;29;20045;-80
2022/02/28 10:21:38;;;;;;;6.60;4.88;;;5.00;77.20;;;;;;4846529;29;20029;-80
2022/02/28 10:24:08;;;;;;;6.05;4.68;;;5.10;77.20;;;;;;4815114;29;20416;-81
2022/02/28 10:26:59;;;;;;;5.88;4.10;;;5.10;77.20;;;;;;4822144;29;20038;-80
2022/02/28 10:29:44;;;;;;;5.45;3.90;;;5.20;77.20;;;;;;4819529;29;20123;-80
2022/02/28 10:32:49;;;;;;;5.85;4.35;;;5.30;77.20;;;;;;4826729;29;20046;-81
2022/02/28 10:36:01;;;;;;;5.95;4.40;;;5.40;77.30;;;;;;4827495;29;20556;-80
2022/02/28 10:42:15;;;;;;;5.68;4.28;;;5.60;77.30;;;;;;4816124;29;20472;-80
2022/02/28 10:44:42;;;;;;;6.13;4.50;;;5.70;77.30;;;;;;4832178;29;20026;-80
2022/02/28 10:47:14;;;;;;;6.05;4.43;;;5.80;77.30;;;;;;4816901;29;20019;-81
2022/02/28 10:49:43;;;;;;;6.43;4.60;;;5.90;77.30;;;;;;4814908;29;20399;-81
2022/02/28 10:52:12;;;;;;;6.47;4.38;;;6.00;77.30;;;;;;4815408;29;20045;-81
2022/02/28 10:54:43;;;;;;;6.47;4.50;;;6.10;77.30;;;;;;4827484;29;20030;-81
2022/02/28 10:57:10;;;;;;;6.15;4.35;;;6.20;77.30;;;;;;4825759;29;20037;-80
2022/02/28 10:59:43;;;;;;;5.88;4.10;;;6.20;77.20;;;;;;4826360;29;20039;-81
2022/02/28 11:02:21;;;;;;;5.95;4.50;;;6.30;77.30;;;;;;4826642;29;20388;-81
2022/02/28 11:04:49;;;;;;;6.28;4.50;;;6.40;77.20;;;;;;4810904;29;20038;-80
2022/02/28 11:07:23;;;;;;;6.70;4.35;;;6.50;77.20;;;;;;4811422;29;20026;-81
2022/02/28 11:09:50;;;;;;;6.03;4.35;;;6.60;77.20;;;;;;4826095;29;20046;-80
2022/02/28 11:12:26;;;;;;;6.43;4.13;;;6.70;77.10;;;;;;4811202;29;20502;-80
2022/02/28 11:14:54;;;;;;;5.82;4.50;;;6.80;77.20;;;;;;4826427;29;20034;-81
2022/02/28 11:17:23;;;;;;;6.38;4.38;;;6.80;77.00;;;;;;4826120;29;20038;-79
2022/02/28 11:19:51;;;;;;;5.65;4.25;;;6.90;77.10;;;;;;4825659;29;20510;-81
2022/02/28 11:22:18;;;;;;;6.32;5.00;;;7.00;77.10;;;;;;4825343;29;20041;-80
2022/02/28 11:24:44;;;;;;;6.13;4.50;;;7.10;77.10;;;;;;4825386;29;20095;-80
2022/02/28 11:27:11;;;;;;;6.20;4.45;;;7.20;77.20;;;;;;4825203;29;20030;-77
2022/02/28 11:29:37;;;;;;;5.50;4.22;;;7.20;77.10;;;;;;4824503;29;20062;-77
2022/02/28 11:32:07;;;;;;;6.32;4.75;;;7.30;77.10;;;;;;4826270;29;20232;-79
2022/02/28 11:34:33;;;;;;;6.18;4.38;;;7.40;77.20;;;;;;4826680;29;20034;-80
2022/02/28 11:37:02;;;;;;;6.05;4.75;;;7.40;77.10;;;;;;4810108;29;20392;-79
2022/02/28 11:39:34;;;;;;;6.65;4.60;;;7.50;77.20;;;;;;4826110;29;20398;-79
2022/02/28 11:42:02;;;;;;;5.90;4.65;;;7.50;77.20;;;;;;4825883;29;20053;-78
2022/02/28 11:44:28;;;;;;;6.38;4.45;;;7.60;77.20;;;;;;4825206;29;20114;-80
2022/02/28 11:47:02;;;;;;;6.85;4.70;;;7.60;77.30;;;;;;4809770;29;20541;-78
2022/02/28 11:49:40;;;;;;;6.25;4.43;;;7.70;77.40;;;;;;4825450;29;20107;-78
2022/02/28 11:52:41;;;;;;;7.20;5.07;;;7.80;77.50;;;;;;4825048;29;20038;-78
2022/02/28 11:55:14;;;;;;;6.57;4.68;;;7.80;77.60;;;;;;4773545;30;20138;-77
2022/02/28 11:57:49;;;;;;;6.32;4.40;;;7.90;77.50;;;;;;4819546;29;20511;-81
2022/02/28 12:00:44;;;;;;;6.53;4.82;;;8.00;77.70;;;;;;4826193;29;20125;-78
2022/02/28 12:03:15;;;;;;;6.53;4.70;;;8.00;77.80;;;;;;4824850;29;20373;-78
2022/02/28 12:05:42;;;;;;;7.10;4.88;;;8.10;77.80;;;;;;4809879;29;20040;-80
2022/02/28 12:08:15;;;;;;;7.28;5.10;;;8.10;77.80;;;;;;4824455;29;20460;-79
2022/02/28 12:10:57;;;;;;;6.30;4.70;;;8.10;77.80;;;;;;4824347;29;20070;-77
2022/02/28 12:13:36;;;;;;;6.65;4.63;;;8.20;78.00;;;;;;4826225;29;20057;-80
2022/02/28 12:19:34;;;;;;;6.85;4.90;;;8.30;78.10;;;;;;4824483;29;20042;-81
2022/02/28 12:22:02;;;;;;;6.50;4.85;;;8.40;77.90;;;;;;4824653;29;20034;-80
2022/02/28 12:25:04;;;;;;;6.30;4.72;;;8.40;78.00;;;;;;4825666;29;20023;-80
2022/02/28 12:27:39;;;;;;;6.65;5.05;;;8.50;78.20;;;;;;4824783;29;20406;-80
2022/02/28 12:30:40;;;;;;;6.68;4.53;;;8.60;78.20;;;;;;4809072;29;20147;-79
2022/02/28 12:33:06;;;;;;;6.00;4.30;;;8.60;78.30;;;;;;4809495;29;20644;-80
2022/02/28 12:35:54;;;;;;;6.65;4.65;;;8.70;78.20;;;;;;4823786;29;20050;-79
2022/02/28 12:38:25;;;;;;;7.25;5.35;;;8.70;78.40;;;;;;4824532;29;20030;-79
2022/02/28 12:41:06;;;;;;;6.47;4.82;;;8.80;78.40;;;;;;4824185;29;20087;-80
2022/02/28 12:43:33;;;;;;;6.50;4.93;;;8.80;78.40;;;;;;4818327;29;20046;-80
2022/02/28 12:46:15;;;;;;;6.28;4.68;;;8.90;78.30;;;;;;4809057;29;20423;-80
2022/02/28 12:48:43;;;;;;;6.22;4.60;;;9.00;78.30;;;;;;4824002;29;20133;-81
2022/02/28 12:51:11;;;;;;;6.38;4.38;;;9.00;78.30;;;;;;4824006;29;20121;-79
2022/02/28 12:53:39;;;;;;;6.15;4.88;;;9.10;78.30;;;;;;4808883;29;20091;-82
2022/02/28 12:56:11;;;;;;;6.65;4.88;;;9.10;78.30;;;;;;4823842;29;20117;-80
2022/02/28 12:58:46;;;;;;;6.55;4.90;;;9.20;78.40;;;;;;4824031;29;20031;-80
2022/02/28 13:01:17;;;;;;;6.72;4.93;;;9.20;78.30;;;;;;4808624;29;20026;-81
2022/02/28 13:03:46;;;;;;;6.32;4.72;;;9.30;78.40;;;;;;4823463;29;20034;-80
2022/02/28 13:06:13;;;;;;;5.82;4.28;;;9.30;78.40;;;;;;4824248;29;20106;-78
2022/02/28 13:08:57;;;;;;;6.85;4.85;;;9.40;78.50;;;;;;4808899;29;20046;-80
2022/02/28 13:11:23;;;;;;;5.93;4.70;;;9.40;78.50;;;;;;4823928;29;20108;-81
2022/02/28 13:14:16;;;;;;;6.75;5.05;;;9.50;78.40;;;;;;4808452;29;20038;-79